createdAt,value
2018-05-24T00:00:55.452Z,60.81
2018-05-24T00:03:23.640Z,60.80
2018-05-24T00:05:52.210Z,60.99
2018-05-24T00:08:20.434Z,61.78
2018-05-24T00:10:48.782Z,61.20
2018-05-24T00:13:17.013Z,61.62
2018-05-24T00:15:45.153Z,61.74
2018-05-24T00:18:12.728Z,62.96
2018-05-24T00:20:40.909Z,62.63
2018-05-24T00:23:09.082Z,63.03
2018-05-24T00:25:37.309Z,62.69
2018-05-24T00:28:04.856Z,62.53
2018-05-24T00:30:32.404Z,62.67
2018-05-24T00:32:59.969Z,62.77
2018-05-24T00:35:28.075Z,63.30
2018-05-24T00:37:56.214Z,63.49
2018-05-24T00:40:24.594Z,64.33
2018-05-24T00:42:52.146Z,63.78
2018-05-24T00:45:19.889Z,63.66
2018-05-24T00:47:48.232Z,63.83
2018-05-24T00:50:16.820Z,63.73
2018-05-24T00:52:44.496Z,63.66
2018-05-24T00:55:24.902Z,63.90
2018-05-24T01:00:50.550Z,64.25
2018-05-24T01:03:18.125Z,63.74
2018-05-24T01:05:46.768Z,64.21
2018-05-24T01:08:14.848Z,64.55
2018-05-24T01:10:43.132Z,64.55
2018-05-24T01:13:11.400Z,65.48
2018-05-24T01:15:39.523Z,65.36
2018-05-24T01:18:09.125Z,65.35
2018-05-24T01:20:36.705Z,65.49
2018-05-24T01:23:04.240Z,65.32
2018-05-24T01:25:32.579Z,65.20
2018-05-24T01:28:00.133Z,65.02
2018-05-24T01:30:28.553Z,66.49
2018-05-24T01:32:56.149Z,65.62
2018-05-24T01:35:24.219Z,65.84
2018-05-24T01:37:51.778Z,66.06
2018-05-24T01:40:20.114Z,66.26
2018-05-24T01:42:48.874Z,65.99
2018-05-24T01:45:16.980Z,65.71
2018-05-24T01:47:44.530Z,65.54
2018-05-24T01:50:12.103Z,65.83
2018-05-24T01:52:39.647Z,65.87
2018-05-24T01:55:07.179Z,65.64
2018-05-24T01:57:35.462Z,65.69
2018-05-24T02:00:03.021Z,66.52
2018-05-24T02:02:30.618Z,66.35
2018-05-24T02:04:58.927Z,66.15
2018-05-24T02:07:27.325Z,66.25
2018-05-24T02:09:55.481Z,66.82
2018-05-24T02:12:23.179Z,66.21
2018-05-24T02:14:52.516Z,66.45
2018-05-24T02:17:20.071Z,66.38
2018-05-24T02:19:48.852Z,66.17
2018-05-24T02:22:17.925Z,66.48
2018-05-24T02:24:47.211Z,66.99
2018-05-24T02:27:14.760Z,67.16
2018-05-24T02:29:42.945Z,68.23
2018-05-24T02:32:10.484Z,67.41
2018-05-24T02:34:38.031Z,68.30
2018-05-24T02:37:06.098Z,69.03
2018-05-24T02:39:34.098Z,68.77
2018-05-24T02:42:01.649Z,68.40
2018-05-24T02:44:29.224Z,67.82
2018-05-24T02:46:57.543Z,67.78
2018-05-24T02:49:25.078Z,66.78
2018-05-24T02:51:52.958Z,66.30
2018-05-24T02:54:20.522Z,65.37
2018-05-24T02:56:48.089Z,64.11
2018-05-24T02:59:15.643Z,63.20
2018-05-24T03:01:43.906Z,61.76
2018-05-24T03:04:11.462Z,60.79
2018-05-24T03:06:39.332Z,59.10
2018-05-24T03:09:07.698Z,57.69
2018-05-24T03:11:35.238Z,57.53
2018-05-24T03:14:03.594Z,56.30
2018-05-24T03:16:31.943Z,55.28
2018-05-24T03:19:00.196Z,54.17
2018-05-24T03:21:27.789Z,52.54
2018-05-24T03:23:55.915Z,51.53
2018-05-24T03:26:23.459Z,50.29
2018-05-24T03:28:51.007Z,50.35
2018-05-24T03:31:19.133Z,49.60
2018-05-24T03:33:48.258Z,48.85
2018-05-24T03:36:17.083Z,48.24
2018-05-24T03:38:44.639Z,47.01
2018-05-24T03:41:12.761Z,46.15
2018-05-24T03:43:40.823Z,45.78
2018-05-24T03:46:08.366Z,45.32
2018-05-24T03:48:36.499Z,45.32
2018-05-24T03:51:04.238Z,43.47
2018-05-24T03:53:31.827Z,44.00
2018-05-24T03:55:59.492Z,43.84
2018-05-24T03:58:27.023Z,43.39
2018-05-24T04:01:07.199Z,43.13
2018-05-24T04:03:48.466Z,43.19
2018-05-24T04:06:16.771Z,43.49
2018-05-24T04:08:44.970Z,44.31
2018-05-24T04:11:13.455Z,44.82
2018-05-24T04:13:41.786Z,45.07
2018-05-24T04:16:09.709Z,45.81
2018-05-24T04:18:38.055Z,46.59
2018-05-24T04:21:06.052Z,47.65
2018-05-24T04:23:33.671Z,47.77
2018-05-24T04:26:01.915Z,48.85
2018-05-24T04:28:29.500Z,49.31
2018-05-24T04:30:57.597Z,49.99
2018-05-24T04:33:25.142Z,50.09
2018-05-24T04:35:53.454Z,50.42
2018-05-24T04:38:21.023Z,51.04
2018-05-24T04:40:49.419Z,50.88
2018-05-24T04:43:17.793Z,51.45
2018-05-24T04:45:46.390Z,51.81
2018-05-24T04:48:13.975Z,50.73
2018-05-24T04:50:41.506Z,51.00
2018-05-24T04:53:09.723Z,51.94
2018-05-24T04:55:37.295Z,52.38
2018-05-24T04:58:04.830Z,52.78
2018-05-24T05:00:32.412Z,52.02
2018-05-24T05:02:59.985Z,52.33
2018-05-24T05:05:28.251Z,53.22
2018-05-24T05:07:56.768Z,51.11
2018-05-24T05:10:24.769Z,51.61
2018-05-24T05:12:52.578Z,51.80
2018-05-24T05:15:21.275Z,51.90
2018-05-24T05:17:48.814Z,51.51
2018-05-24T05:20:17.832Z,51.01
2018-05-24T05:22:45.588Z,51.09
2018-05-24T05:25:13.794Z,51.12
2018-05-24T05:27:42.270Z,50.90
2018-05-24T05:30:10.261Z,50.02
2018-05-24T05:32:37.791Z,50.63
2018-05-24T05:35:05.331Z,50.09
2018-05-24T05:37:34.037Z,50.44
2018-05-24T05:40:02.159Z,49.75
2018-05-24T05:42:29.694Z,49.81
2018-05-24T05:44:57.273Z,49.83
2018-05-24T05:47:24.819Z,49.18
2018-05-24T05:49:52.438Z,48.67
2018-05-24T05:52:20.023Z,47.77
2018-05-24T05:54:48.607Z,48.38
2018-05-24T05:57:17.931Z,48.17
2018-05-24T05:59:47.099Z,47.72
2018-05-24T06:02:14.634Z,47.17
2018-05-24T06:04:43.619Z,46.91
2018-05-24T06:07:11.974Z,46.39
2018-05-24T06:09:40.191Z,46.83
2018-05-24T06:12:08.535Z,46.16
2018-05-24T06:14:36.602Z,46.28
2018-05-24T06:17:04.140Z,44.78
2018-05-24T06:19:32.323Z,45.46
2018-05-24T06:21:59.994Z,44.85
2018-05-24T06:24:28.268Z,46.66
2018-05-24T06:26:55.822Z,44.61
2018-05-24T06:29:24.465Z,45.10
2018-05-24T06:31:52.659Z,46.36
2018-05-24T06:34:20.222Z,47.66
2018-05-24T06:36:48.472Z,46.06
2018-05-24T06:39:16.578Z,45.84
2018-05-24T06:41:44.787Z,47.29
2018-05-24T06:44:13.243Z,46.05
2018-05-24T06:46:40.802Z,45.32
2018-05-24T06:49:08.343Z,46.10
2018-05-24T06:51:35.922Z,46.10
2018-05-24T06:54:03.467Z,45.82
2018-05-24T06:56:31.007Z,45.54
2018-05-24T06:58:58.582Z,46.39
2018-05-24T07:01:26.866Z,46.24
2018-05-24T07:03:55.274Z,45.77
2018-05-24T07:06:23.387Z,45.60
2018-05-24T07:08:51.594Z,45.90
2018-05-24T07:11:20.027Z,45.52
2018-05-24T07:13:48.423Z,45.22
2018-05-24T07:16:16.875Z,45.93
2018-05-24T07:18:45.084Z,45.19
2018-05-24T07:21:12.639Z,44.23
2018-05-24T07:23:40.191Z,44.86
2018-05-24T07:26:08.495Z,45.34
2018-05-24T07:28:36.041Z,44.97
2018-05-24T07:31:03.990Z,45.14
2018-05-24T07:33:31.531Z,46.07
2018-05-24T07:35:59.584Z,45.88
2018-05-24T07:38:27.201Z,44.88
2018-05-24T07:40:55.577Z,43.97
2018-05-24T07:43:24.169Z,44.43
2018-05-24T07:45:51.920Z,44.88
2018-05-24T07:48:19.519Z,44.93
2018-05-24T07:50:48.323Z,45.43
2018-05-24T07:53:16.791Z,44.84
2018-05-24T07:55:44.759Z,43.62
2018-05-24T07:58:12.283Z,44.37
2018-05-24T08:00:40.700Z,44.65
2018-05-24T08:03:08.239Z,44.43
2018-05-24T08:05:36.501Z,44.35
2018-05-24T08:08:04.784Z,43.21
2018-05-24T08:10:34.134Z,44.09
2018-05-24T08:13:01.758Z,44.80
2018-05-24T08:15:29.995Z,44.62
2018-05-24T08:17:57.578Z,42.36
2018-05-24T08:20:25.898Z,42.01
2018-05-24T08:22:53.453Z,41.31
2018-05-24T08:25:21.947Z,41.12
2018-05-24T08:27:49.499Z,41.13
2018-05-24T08:30:18.244Z,40.72
2018-05-24T08:32:46.074Z,39.93
2018-05-24T08:35:13.977Z,40.66
2018-05-24T08:37:42.063Z,39.99
2018-05-24T08:40:10.603Z,39.29
2018-05-24T08:42:38.181Z,39.04
2018-05-24T08:45:05.744Z,39.74
2018-05-24T08:47:33.328Z,39.76
2018-05-24T08:50:00.867Z,38.22
2018-05-24T08:52:28.407Z,38.71
2018-05-24T08:54:55.980Z,39.37
2018-05-24T08:57:25.110Z,38.46
2018-05-24T08:59:53.232Z,38.85
2018-05-24T09:02:20.767Z,38.95
2018-05-24T09:04:48.305Z,39.36
2018-05-24T09:07:16.991Z,38.62
2018-05-24T09:09:45.071Z,38.43
2018-05-24T09:12:12.607Z,38.37
2018-05-24T09:14:41.191Z,38.31
2018-05-24T09:17:08.722Z,39.28
2018-05-24T09:19:37.115Z,39.46
2018-05-24T09:22:04.659Z,39.27
2018-05-24T09:24:33.558Z,37.49
2018-05-24T09:27:01.097Z,37.29
2018-05-24T09:29:28.715Z,37.04
2018-05-24T09:31:56.790Z,37.44
2018-05-24T09:34:25.323Z,37.72
2018-05-24T09:36:54.005Z,37.69
2018-05-24T09:39:21.587Z,38.81
2018-05-24T09:41:49.591Z,37.98
2018-05-24T09:44:17.256Z,37.21
2018-05-24T09:46:44.800Z,36.87
2018-05-24T09:49:12.364Z,36.78
2018-05-24T09:51:39.964Z,37.61
2018-05-24T09:54:07.516Z,37.57
2018-05-24T09:56:35.655Z,36.65
2018-05-24T09:59:03.215Z,36.63
2018-05-24T10:01:30.808Z,35.78
2018-05-24T10:03:58.381Z,35.88
2018-05-24T10:06:26.518Z,35.36
2018-05-24T10:08:55.503Z,36.14
2018-05-24T10:11:26.930Z,36.31
2018-05-24T10:13:54.679Z,35.25
2018-05-24T10:16:23.534Z,35.48
2018-05-24T10:18:51.574Z,35.54
2018-05-24T10:21:19.120Z,35.20
2018-05-24T10:23:48.207Z,34.36
2018-05-24T10:26:15.996Z,33.75
2018-05-24T10:32:14.227Z,32.72
2018-05-24T10:34:41.766Z,33.25
2018-05-24T10:37:09.895Z,33.78
2018-05-24T10:39:37.968Z,32.04
2018-05-24T10:42:06.339Z,31.99
2018-05-24T10:44:33.884Z,32.18
2018-05-24T10:47:01.438Z,32.35
2018-05-24T10:49:29.027Z,32.83
2018-05-24T10:51:56.578Z,30.46
2018-05-24T10:54:25.198Z,31.36
2018-05-24T10:56:52.734Z,31.39
2018-05-24T10:59:20.266Z,31.71
2018-05-24T11:01:47.911Z,32.23
2018-05-24T11:04:15.545Z,31.74
2018-05-24T11:06:43.817Z,32.72
2018-05-24T11:09:12.212Z,31.28
2018-05-24T11:11:39.808Z,31.00
2018-05-24T11:14:07.285Z,31.44
2018-05-24T11:16:35.278Z,30.80
2018-05-24T11:19:03.386Z,30.04
2018-05-24T11:21:30.957Z,31.07
2018-05-24T11:23:59.408Z,30.97
2018-05-24T11:26:26.955Z,31.22
2018-05-24T11:28:54.660Z,29.89
2018-05-24T11:31:23.162Z,30.69
2018-05-24T11:33:50.703Z,29.24
2018-05-24T11:36:18.825Z,29.66
2018-05-24T11:38:46.911Z,30.12
2018-05-24T11:41:15.145Z,30.17
2018-05-24T11:43:42.683Z,29.37
2018-05-24T11:46:10.233Z,30.19
2018-05-24T11:48:37.807Z,30.66
2018-05-24T11:51:06.073Z,30.69
2018-05-24T11:53:33.636Z,30.67
2018-05-24T11:56:01.191Z,29.79
2018-05-24T11:58:28.777Z,30.36
2018-05-24T12:00:56.391Z,29.47
2018-05-24T12:03:24.658Z,30.03
2018-05-24T12:05:53.375Z,30.01
2018-05-24T12:08:21.799Z,30.37
2018-05-24T12:10:49.956Z,29.75
2018-05-24T12:13:18.490Z,29.78
2018-05-24T12:15:47.145Z,29.26
2018-05-24T12:18:15.793Z,29.69
2018-05-24T12:20:43.338Z,28.84
2018-05-24T12:23:10.873Z,29.63
2018-05-24T12:25:38.939Z,30.50
2018-05-24T12:28:07.241Z,29.65
2018-05-24T12:30:35.317Z,28.77
2018-05-24T12:33:02.872Z,28.87
2018-05-24T12:35:31.378Z,29.64
2018-05-24T12:37:58.909Z,29.60
2018-05-24T12:40:27.796Z,29.31
2018-05-24T12:42:55.363Z,29.56
2018-05-24T12:45:23.865Z,29.94
2018-05-24T12:47:51.478Z,29.42
2018-05-24T12:50:19.869Z,27.94
2018-05-24T12:52:47.786Z,29.13
2018-05-24T12:55:16.811Z,29.55
2018-05-24T12:57:44.389Z,29.35
2018-05-24T13:00:11.931Z,28.87
2018-05-24T13:02:39.511Z,28.93
2018-05-24T13:05:07.788Z,28.36
2018-05-24T13:07:35.814Z,28.81
2018-05-24T13:10:04.075Z,29.08
2018-05-24T13:12:31.651Z,29.03
2018-05-24T13:14:59.810Z,28.58
2018-05-24T13:17:27.435Z,27.81
2018-05-24T13:19:55.776Z,28.11
2018-05-24T13:22:23.418Z,27.67
2018-05-24T13:24:51.468Z,27.69
2018-05-24T13:27:19.005Z,27.43
2018-05-24T13:29:47.987Z,28.10
2018-05-24T13:32:15.602Z,28.27
2018-05-24T13:34:43.187Z,28.24
2018-05-24T13:37:11.359Z,27.00
2018-05-24T13:39:39.362Z,27.52
2018-05-24T13:42:06.893Z,28.53
2018-05-24T13:44:34.426Z,29.04
2018-05-24T13:47:02.552Z,29.13
2018-05-24T13:49:30.255Z,28.70
2018-05-24T13:51:57.802Z,27.89
2018-05-24T13:54:25.397Z,28.11
2018-05-24T13:56:53.539Z,28.12
2018-05-24T13:59:21.083Z,27.35
2018-05-24T14:01:48.619Z,26.87
2018-05-24T14:04:16.538Z,27.71
2018-05-24T14:06:44.614Z,27.73
2018-05-24T14:09:12.610Z,27.11
2018-05-24T14:11:40.848Z,27.56
2018-05-24T14:14:08.387Z,27.55
2018-05-24T14:16:36.438Z,28.09
2018-05-24T14:19:04.596Z,28.47
2018-05-24T14:21:32.143Z,28.21
2018-05-24T14:24:00.162Z,28.23
2018-05-24T14:26:27.719Z,28.00
2018-05-24T14:28:55.250Z,27.84
2018-05-24T14:31:26.174Z,27.30
2018-05-24T14:33:53.723Z,28.18
2018-05-24T14:36:21.984Z,27.60
2018-05-24T14:38:49.507Z,26.71
2018-05-24T14:41:18.175Z,26.23
2018-05-24T14:43:46.396Z,26.52
2018-05-24T14:46:14.539Z,27.15
2018-05-24T14:48:42.084Z,27.19
2018-05-24T14:51:09.615Z,26.51
2018-05-24T14:53:37.271Z,26.32
2018-05-24T14:56:04.831Z,26.40
2018-05-24T14:58:32.434Z,26.70
2018-05-24T15:01:00.004Z,26.13
2018-05-24T15:03:27.544Z,26.47
2018-05-24T15:05:55.455Z,26.42
2018-05-24T15:08:24.177Z,26.19
2018-05-24T15:10:52.408Z,25.89
2018-05-24T15:13:31.831Z,25.98
2018-05-24T15:15:59.874Z,25.70
2018-05-24T15:18:28.017Z,24.89
2018-05-24T15:20:55.556Z,25.54
2018-05-24T15:23:23.159Z,26.31
2018-05-24T15:25:51.222Z,26.23
2018-05-24T15:28:19.150Z,24.91
2018-05-24T15:30:47.276Z,24.33
2018-05-24T15:33:14.822Z,23.64
2018-05-24T15:35:44.067Z,22.42
2018-05-24T15:38:11.623Z,21.46
2018-05-24T15:40:39.814Z,20.59
2018-05-24T15:43:08.172Z,20.55
2018-05-24T15:45:35.736Z,20.52
2018-05-24T15:48:03.272Z,20.08
2018-05-24T15:50:30.869Z,19.80
2018-05-24T15:52:58.411Z,19.08
2018-05-24T15:55:26.025Z,18.32
2018-05-24T15:57:54.938Z,19.14
2018-05-24T16:00:22.472Z,18.27
2018-05-24T16:02:50.015Z,18.25
2018-05-24T16:05:18.459Z,18.32
2018-05-24T16:07:46.870Z,18.37
2018-05-24T16:10:15.435Z,18.20
2018-05-24T16:12:43.144Z,17.74
2018-05-24T16:15:11.350Z,17.72
2018-05-24T16:17:38.900Z,17.62
2018-05-24T16:20:06.840Z,17.80
2018-05-24T16:22:34.383Z,18.35
2018-05-24T16:25:02.419Z,18.39
2018-05-24T16:27:30.773Z,18.20
2018-05-24T16:29:58.858Z,18.15
2018-05-24T16:32:26.404Z,18.59
2018-05-24T16:34:53.997Z,17.66
2018-05-24T16:37:22.023Z,17.94
2018-05-24T16:39:50.278Z,17.90
2018-05-24T16:42:18.274Z,18.52
2018-05-24T16:44:46.395Z,18.43
2018-05-24T16:47:13.973Z,18.17
2018-05-24T16:49:41.514Z,18.11
2018-05-24T16:52:09.171Z,18.58
2018-05-24T16:54:36.757Z,18.18
2018-05-24T16:57:04.321Z,17.77
2018-05-24T16:59:31.854Z,17.83
2018-05-24T17:01:59.427Z,17.56
2018-05-24T17:04:28.216Z,17.49
2018-05-24T17:06:56.582Z,17.11
2018-05-24T17:09:25.659Z,17.57
2018-05-24T17:11:53.994Z,17.50
2018-05-24T17:14:22.198Z,17.78
2018-05-24T17:16:49.828Z,17.76
2018-05-24T17:19:18.143Z,17.46
2018-05-24T17:21:45.715Z,17.57
2018-05-24T17:24:14.106Z,18.54
2018-05-24T17:26:41.639Z,18.45
2018-05-24T17:29:09.920Z,17.74
2018-05-24T17:31:37.939Z,18.33
2018-05-24T17:34:05.483Z,18.05
2018-05-24T17:36:33.867Z,18.97
2018-05-24T17:39:01.843Z,18.86
2018-05-24T17:41:30.006Z,18.81
2018-05-24T17:43:57.542Z,19.68
2018-05-24T17:46:25.089Z,19.64
2018-05-24T17:48:52.759Z,20.01
2018-05-24T17:51:20.305Z,19.94
2018-05-24T17:53:48.558Z,19.94
2018-05-24T17:56:16.815Z,19.70
2018-05-24T17:58:44.351Z,19.68
2018-05-24T18:01:11.888Z,20.31
2018-05-24T18:03:39.573Z,19.71
2018-05-24T18:06:08.058Z,19.91
2018-05-24T18:08:36.669Z,20.21
2018-05-24T18:11:05.319Z,19.85
2018-05-24T18:13:32.935Z,19.88
2018-05-24T18:16:01.035Z,20.25
2018-05-24T18:18:29.292Z,20.29
2018-05-24T18:20:56.820Z,20.46
2018-05-24T18:23:24.614Z,20.78
2018-05-24T18:25:53.676Z,20.68
2018-05-24T18:28:21.839Z,21.34
2018-05-24T18:30:50.086Z,21.76
2018-05-24T18:33:18.003Z,22.62
2018-05-24T18:35:46.384Z,23.19
2018-05-24T18:38:14.436Z,23.79
2018-05-24T18:40:42.687Z,24.74
2018-05-24T18:43:10.224Z,25.59
2018-05-24T18:45:37.755Z,25.59
2018-05-24T18:48:05.318Z,26.38
2018-05-24T18:50:32.990Z,27.00
2018-05-24T18:53:00.544Z,27.12
2018-05-24T18:55:28.430Z,27.52
2018-05-24T18:57:55.980Z,27.63
2018-05-24T19:00:23.590Z,28.41
2018-05-24T19:02:51.159Z,28.44
2018-05-24T19:05:19.395Z,28.68
2018-05-24T19:07:48.265Z,28.79
2018-05-24T19:10:17.460Z,28.99
2018-05-24T19:12:45.007Z,29.48
2018-05-24T19:15:13.290Z,29.68
2018-05-24T19:17:40.855Z,30.59
2018-05-24T19:20:09.064Z,30.07
2018-05-24T19:22:36.654Z,30.25
2018-05-24T19:25:05.069Z,30.29
2018-05-24T19:27:33.380Z,31.11
2018-05-24T19:30:01.632Z,30.85
2018-05-24T19:32:30.108Z,31.25
2018-05-24T19:34:57.651Z,31.42
2018-05-24T19:37:25.822Z,31.63
2018-05-24T19:39:53.954Z,31.24
2018-05-24T19:42:22.192Z,31.59
2018-05-24T19:44:49.747Z,31.92
2018-05-24T19:47:17.354Z,32.06
2018-05-24T19:49:44.939Z,32.28
2018-05-24T19:52:12.476Z,32.38
2018-05-24T19:54:40.143Z,32.86
2018-05-24T19:57:07.726Z,33.24
2018-05-24T19:59:35.382Z,33.24
2018-05-24T20:02:03.053Z,33.38
2018-05-24T20:04:30.694Z,33.88
2018-05-24T20:06:59.016Z,34.01
2018-05-24T20:09:27.390Z,34.69
2018-05-24T20:11:55.052Z,34.13
2018-05-24T20:14:24.204Z,35.21
2018-05-24T20:16:51.759Z,35.47
2018-05-24T20:19:20.216Z,35.21
2018-05-24T20:21:48.642Z,35.11
2018-05-24T20:24:17.234Z,35.07
2018-05-24T20:26:45.835Z,35.12
2018-05-24T20:29:14.035Z,35.01
2018-05-24T20:31:42.240Z,36.60
2018-05-24T20:34:09.796Z,39.94
2018-05-24T20:36:38.300Z,40.06
2018-05-24T20:39:06.890Z,39.82
2018-05-24T20:41:35.202Z,39.51
2018-05-24T20:44:02.751Z,40.65
2018-05-24T20:46:30.364Z,40.42
2018-05-24T20:48:57.921Z,40.77
2018-05-24T20:51:25.474Z,41.50
2018-05-24T20:53:53.140Z,41.07
2018-05-24T20:56:20.783Z,42.25
2018-05-24T20:58:48.310Z,42.67
2018-05-24T21:01:16.529Z,42.22
2018-05-24T21:03:44.118Z,43.41
2018-05-24T21:06:12.558Z,43.51
2018-05-24T21:08:40.688Z,43.75
2018-05-24T21:11:09.220Z,43.99
2018-05-24T21:13:37.487Z,43.72
2018-05-24T21:16:05.587Z,44.08
2018-05-24T21:18:33.687Z,44.45
2018-05-24T21:21:01.227Z,43.76
2018-05-24T21:23:28.770Z,44.36
2018-05-24T21:25:56.772Z,44.64
2018-05-24T21:28:27.509Z,46.44
2018-05-24T21:30:56.003Z,46.61
2018-05-24T21:33:23.586Z,46.24
2018-05-24T21:35:51.732Z,45.98
2018-05-24T21:38:19.282Z,46.62
2018-05-24T21:40:47.649Z,46.89
2018-05-24T21:43:16.321Z,46.34
2018-05-24T21:45:43.859Z,46.09
2018-05-24T21:48:11.399Z,46.59
2018-05-24T21:50:39.020Z,47.30
2018-05-24T21:53:06.590Z,48.25
2018-05-24T21:55:34.154Z,48.07
2018-05-24T21:58:01.861Z,48.11
2018-05-24T22:00:29.517Z,47.51
2018-05-24T22:02:57.052Z,48.89
2018-05-24T22:05:25.210Z,48.33
2018-05-24T22:07:53.425Z,49.15
2018-05-24T22:10:21.504Z,49.83
2018-05-24T22:12:49.073Z,50.24
2018-05-24T22:15:17.082Z,48.91
2018-05-24T22:17:44.619Z,48.69
2018-05-24T22:20:13.083Z,48.61
2018-05-24T22:22:40.647Z,49.49
2018-05-24T22:25:08.880Z,49.57
2018-05-24T22:27:37.083Z,50.72
2018-05-24T22:30:05.427Z,50.21
2018-05-24T22:32:32.967Z,51.15
2018-05-24T22:35:00.502Z,50.94
2018-05-24T22:37:28.719Z,50.59
2018-05-24T22:39:56.255Z,50.47
2018-05-24T22:42:23.855Z,52.16
2018-05-24T22:44:51.431Z,51.49
2018-05-24T22:47:18.976Z,50.09
2018-05-24T22:49:46.747Z,49.47
2018-05-24T22:52:14.317Z,49.63
2018-05-24T22:54:41.847Z,49.95
2018-05-24T22:57:09.387Z,50.54
2018-05-24T22:59:36.966Z,50.81
2018-05-24T23:02:04.564Z,50.39
2018-05-24T23:04:32.256Z,50.08
2018-05-24T23:07:00.404Z,50.35
2018-05-24T23:09:28.443Z,50.41
2018-05-24T23:11:56.518Z,49.80
2018-05-24T23:14:25.032Z,49.95
2018-05-24T23:16:52.574Z,49.35
2018-05-24T23:19:21.339Z,49.38
2018-05-24T23:21:48.884Z,49.53
2018-05-24T23:24:17.066Z,49.53
2018-05-24T23:26:45.221Z,49.68
2018-05-24T23:29:13.445Z,49.93
2018-05-24T23:31:41.509Z,50.05
2018-05-24T23:34:09.056Z,50.45
2018-05-24T23:36:37.308Z,51.19
2018-05-24T23:39:05.739Z,51.43
2018-05-24T23:41:33.320Z,50.86
2018-05-24T23:44:00.956Z,51.05
2018-05-24T23:46:28.473Z,50.95
2018-05-24T23:48:56.019Z,51.10
2018-05-24T23:54:55.212Z,51.04
2018-05-24T23:57:22.889Z,51.33
2018-05-24T23:59:50.809Z,51.19
